createdAt,value
2019-05-12T00:00:21.354Z,15.79
2019-05-12T00:02:49.155Z,15.44
2019-05-12T00:05:18.552Z,15.44
2019-05-12T00:07:48.640Z,15.46
2019-05-12T00:10:17.753Z,15.49
2019-05-12T00:12:48.201Z,15.47
2019-05-12T00:15:18.810Z,15.48
2019-05-12T00:17:48.048Z,15.47
2019-05-12T00:20:18.064Z,15.47
2019-05-12T00:22:50.140Z,15.45
2019-05-12T00:25:18.505Z,15.46
2019-05-12T00:27:48.646Z,15.47
2019-05-12T00:30:38.826Z,15.45
2019-05-12T00:33:09.437Z,15.41
2019-05-12T00:35:38.198Z,15.41
2019-05-12T00:38:08.696Z,15.33
2019-05-12T00:40:39.012Z,15.29
2019-05-12T00:43:08.654Z,15.30
2019-05-12T00:45:38.534Z,15.30
2019-05-12T00:48:09.162Z,15.29
2019-05-12T00:50:38.140Z,15.29
2019-05-12T00:53:09.028Z,15.25
2019-05-12T00:55:38.126Z,15.20
2019-05-12T00:58:08.257Z,15.16
2019-05-12T01:00:40.705Z,15.16
2019-05-12T01:03:08.714Z,15.13
2019-05-12T01:05:38.309Z,15.06
2019-05-12T01:08:09.141Z,15.06
2019-05-12T01:10:38.876Z,15.02
2019-05-12T01:13:08.511Z,14.99
2019-05-12T01:15:37.790Z,14.95
2019-05-12T01:18:08.900Z,14.94
2019-05-12T01:20:38.559Z,14.93
2019-05-12T01:23:08.462Z,14.88
2019-05-12T01:25:36.384Z,14.82
2019-05-12T01:28:04.550Z,14.82
2019-05-12T01:30:33.230Z,14.80
2019-05-12T01:33:01.412Z,14.80
2019-05-12T01:35:29.501Z,14.77
2019-05-12T01:38:01.094Z,14.76
2019-05-12T01:40:28.588Z,14.75
2019-05-12T01:42:58.194Z,14.71
2019-05-12T01:45:28.811Z,14.69
2019-05-12T01:47:59.087Z,14.62
2019-05-12T01:50:28.357Z,14.62
2019-05-12T01:52:58.899Z,14.64
2019-05-12T01:55:28.039Z,14.61
2019-05-12T01:57:57.723Z,14.60
2019-05-12T02:00:28.328Z,14.60
2019-05-12T02:02:58.167Z,14.59
2019-05-12T02:05:27.939Z,14.60
2019-05-12T02:07:58.389Z,14.60
2019-05-12T02:10:28.717Z,14.57
2019-05-12T02:12:56.334Z,14.56
2019-05-12T02:15:27.676Z,14.50
2019-05-12T02:17:55.372Z,14.50
2019-05-12T02:20:23.520Z,14.51
2019-05-12T02:22:51.322Z,14.52
2019-05-12T02:25:19.379Z,14.50
2019-05-12T02:27:47.768Z,14.49
2019-05-12T02:30:19.745Z,14.46
2019-05-12T02:32:52.483Z,14.43
2019-05-12T02:35:16.406Z,14.43
2019-05-12T02:37:49.736Z,14.41
2019-05-12T02:40:18.179Z,14.38
2019-05-12T02:42:46.677Z,14.37
2019-05-12T02:45:15.540Z,14.37
2019-05-12T02:47:45.742Z,14.35
2019-05-12T02:50:18.712Z,14.32
2019-05-12T02:52:47.149Z,14.27
2019-05-12T02:55:15.250Z,14.27
2019-05-12T02:57:45.474Z,14.20
2019-05-12T03:00:15.855Z,14.12
2019-05-12T03:02:46.594Z,14.12
2019-05-12T03:05:15.284Z,14.09
2019-05-12T03:07:46.265Z,14.09
2019-05-12T03:10:14.766Z,14.05
2019-05-12T03:12:44.913Z,14.08
2019-05-12T03:15:15.123Z,14.05
2019-05-12T03:17:44.291Z,14.03
2019-05-12T03:20:15.428Z,14.00
2019-05-12T03:22:44.909Z,13.94
2019-05-12T03:25:20.798Z,13.91
2019-05-12T03:27:44.473Z,13.82
2019-05-12T03:30:18.845Z,13.82
2019-05-12T03:32:47.575Z,13.81
2019-05-12T03:35:16.844Z,13.80
2019-05-12T03:37:45.144Z,13.77
2019-05-12T03:40:14.474Z,13.71
2019-05-12T03:42:44.212Z,13.69
2019-05-12T03:45:14.750Z,13.61
2019-05-12T03:47:45.209Z,13.57
2019-05-12T03:50:11.356Z,13.47
2019-05-12T03:52:39.157Z,13.43
2019-05-12T03:55:25.960Z,13.44
2019-05-12T03:57:37.121Z,13.44
2019-05-12T04:00:05.569Z,13.44
2019-05-12T04:02:34.144Z,13.38
2019-05-12T04:05:05.226Z,13.31
2019-05-12T04:07:34.537Z,13.19
2019-05-12T04:10:04.876Z,13.13
2019-05-12T04:12:34.665Z,13.08
2019-05-12T04:15:05.177Z,13.01
2019-05-12T04:17:35.003Z,13.01
2019-05-12T04:20:04.841Z,13.02
2019-05-12T04:22:35.155Z,12.96
2019-05-12T04:25:05.687Z,12.96
2019-05-12T04:27:34.825Z,12.95
2019-05-12T04:30:05.154Z,12.95
2019-05-12T04:32:35.439Z,12.85
2019-05-12T04:35:04.709Z,12.85
2019-05-12T04:37:35.217Z,12.78
2019-05-12T04:40:05.387Z,12.78
2019-05-12T04:42:34.953Z,12.70
2019-05-12T04:45:04.445Z,12.67
2019-05-12T04:47:34.935Z,12.68
2019-05-12T04:50:05.359Z,12.59
2019-05-12T04:52:35.166Z,12.38
2019-05-12T04:55:04.799Z,12.28
2019-05-12T04:57:34.591Z,12.21
2019-05-12T05:00:05.142Z,12.21
2019-05-12T05:02:36.300Z,12.21
2019-05-12T05:05:05.386Z,12.18
2019-05-12T05:07:35.653Z,11.97
2019-05-12T05:10:04.683Z,11.97
2019-05-12T05:12:34.518Z,11.82
2019-05-12T05:15:05.206Z,11.62
2019-05-12T05:17:34.794Z,11.68
2019-05-12T05:20:04.089Z,11.68
2019-05-12T05:22:33.346Z,11.38
2019-05-12T05:25:04.126Z,11.28
2019-05-12T05:27:33.891Z,11.14
2019-05-12T05:30:03.788Z,10.79
2019-05-12T05:32:31.196Z,10.79
2019-05-12T05:34:59.146Z,10.84
2019-05-12T05:37:30.795Z,10.89
2019-05-12T05:39:57.518Z,10.78
2019-05-12T05:42:30.709Z,10.91
2019-05-12T05:44:55.150Z,10.91
2019-05-12T05:47:25.595Z,10.92
2019-05-12T05:49:54.003Z,10.90
2019-05-12T05:52:26.557Z,10.86
2019-05-12T05:54:53.208Z,10.60
2019-05-12T05:57:25.701Z,10.53
2019-05-12T05:59:51.051Z,10.62
2019-05-12T06:02:23.181Z,10.68
2019-05-12T06:04:50.229Z,10.70
2019-05-12T06:07:23.475Z,10.64
2019-05-12T06:09:48.602Z,10.61
2019-05-12T06:12:16.555Z,10.56
2019-05-12T06:14:48.815Z,10.52
2019-05-12T06:17:14.726Z,10.52
2019-05-12T06:19:43.803Z,10.49
2019-05-12T06:22:15.057Z,10.43
2019-05-12T06:24:44.007Z,10.28
2019-05-12T06:27:16.177Z,10.19
2019-05-12T06:29:41.180Z,10.16
2019-05-12T06:32:10.829Z,10.14
2019-05-12T06:34:38.995Z,10.04
2019-05-12T06:37:12.058Z,9.99
2019-05-12T06:39:37.260Z,9.89
2019-05-12T06:42:12.769Z,9.95
2019-05-12T06:44:35.059Z,9.96
2019-05-12T06:47:08.060Z,9.93
2019-05-12T06:49:33.696Z,9.95
2019-05-12T06:52:06.316Z,9.96
2019-05-12T06:54:33.556Z,9.91
2019-05-12T06:57:18.736Z,9.88
2019-05-12T06:59:33.746Z,9.81
2019-05-12T07:02:03.388Z,9.78
2019-05-12T07:04:33.719Z,9.75
2019-05-12T07:07:03.467Z,9.81
2019-05-12T07:09:34.730Z,9.69
2019-05-12T07:12:03.806Z,9.72
2019-05-12T07:14:30.856Z,9.73
2019-05-12T07:17:06.105Z,9.75
2019-05-12T07:19:34.334Z,9.66
2019-05-12T07:22:03.581Z,9.70
2019-05-12T07:24:34.060Z,9.68
2019-05-12T07:27:06.953Z,9.66
2019-05-12T07:29:31.537Z,9.58
2019-05-12T07:31:59.751Z,9.51
2019-05-12T07:34:27.814Z,9.53
2019-05-12T07:36:57.026Z,9.50
2019-05-12T07:39:26.383Z,9.56
2019-05-12T07:41:56.115Z,9.53
2019-05-12T07:44:34.434Z,9.50
2019-05-12T07:46:56.724Z,9.37
2019-05-12T07:49:34.479Z,9.38
2019-05-12T07:51:54.976Z,9.38
2019-05-12T07:54:23.569Z,9.42
2019-05-12T07:56:53.830Z,9.39
2019-05-12T07:59:26.639Z,9.40
2019-05-12T08:01:54.905Z,9.40
2019-05-12T08:04:23.911Z,9.31
2019-05-12T08:06:53.795Z,9.29
2019-05-12T08:09:24.172Z,9.32
2019-05-12T08:11:54.102Z,9.37
2019-05-12T08:14:28.528Z,9.39
2019-05-12T08:16:54.292Z,9.35
2019-05-12T08:19:24.345Z,9.37
2019-05-12T08:21:53.729Z,9.36
2019-05-12T08:24:23.690Z,9.34
2019-05-12T08:26:59.699Z,9.31
2019-05-12T08:29:24.258Z,9.39
2019-05-12T08:31:54.629Z,9.45
2019-05-12T08:34:23.733Z,9.48
2019-05-12T08:36:56.556Z,9.49
2019-05-12T08:39:25.414Z,9.57
2019-05-12T08:41:53.506Z,9.59
2019-05-12T08:44:24.574Z,9.64
2019-05-12T08:46:56.321Z,9.69
2019-05-12T08:49:23.471Z,9.67
2019-05-12T08:51:55.796Z,9.67
2019-05-12T08:54:23.319Z,9.67
2019-05-12T08:56:59.206Z,9.69
2019-05-12T08:59:24.924Z,9.69
2019-05-12T09:01:53.847Z,9.77
2019-05-12T09:04:21.653Z,9.76
2019-05-12T09:06:56.488Z,9.74
2019-05-12T09:09:23.267Z,9.82
2019-05-12T09:11:54.340Z,9.84
2019-05-12T09:14:23.934Z,9.72
2019-05-12T09:17:00.614Z,9.84
2019-05-12T09:19:24.906Z,9.89
2019-05-12T09:21:54.097Z,9.94
2019-05-12T09:24:26.762Z,9.84
2019-05-12T09:26:53.708Z,9.85
2019-05-12T09:29:22.238Z,9.82
2019-05-12T09:31:50.713Z,9.93
2019-05-12T09:34:18.668Z,9.95
2019-05-12T09:36:51.990Z,9.98
2019-05-12T09:39:16.462Z,10.05
2019-05-12T09:41:50.687Z,9.99
2019-05-12T09:44:14.302Z,10.01
2019-05-12T09:46:44.019Z,10.05
2019-05-12T09:49:14.136Z,10.04
2019-05-12T09:51:45.699Z,10.08
2019-05-12T09:54:13.958Z,9.97
2019-05-12T09:56:44.181Z,10.02
2019-05-12T09:59:18.973Z,10.00
2019-05-12T10:01:45.469Z,9.99
2019-05-12T10:04:16.325Z,9.96
2019-05-12T10:06:44.265Z,9.95
2019-05-12T10:09:17.597Z,10.02
2019-05-12T10:11:41.536Z,9.99
2019-05-12T10:14:10.972Z,9.93
2019-05-12T10:16:44.379Z,9.98
2019-05-12T10:19:09.184Z,9.97
2019-05-12T10:21:37.153Z,10.05
2019-05-12T10:24:05.282Z,10.01
2019-05-12T10:26:34.272Z,10.02
2019-05-12T10:29:15.126Z,9.96
2019-05-12T10:31:35.605Z,10.04
2019-05-12T10:34:20.298Z,10.04
2019-05-12T10:36:49.337Z,10.06
2019-05-12T10:39:19.230Z,10.08
2019-05-12T10:41:47.970Z,9.96
2019-05-12T10:44:15.997Z,10.00
2019-05-12T10:46:46.995Z,10.02
2019-05-12T10:49:14.973Z,10.10
2019-05-12T10:51:44.161Z,10.05
2019-05-12T10:54:15.737Z,10.06
2019-05-12T10:56:43.884Z,9.97
2019-05-12T10:59:13.318Z,9.99
2019-05-12T11:01:45.675Z,9.95
2019-05-12T11:04:11.493Z,9.91
2019-05-12T11:06:43.646Z,10.02
2019-05-12T11:09:09.256Z,10.08
2019-05-12T11:11:42.292Z,10.00
2019-05-12T11:14:07.203Z,10.00
2019-05-12T11:16:35.708Z,10.06
2019-05-12T11:19:06.381Z,10.02
2019-05-12T11:21:35.049Z,9.99
2019-05-12T11:24:03.843Z,9.97
2019-05-12T11:26:31.950Z,9.93
2019-05-12T11:28:59.878Z,9.99
2019-05-12T11:31:27.747Z,9.99
2019-05-12T11:33:55.657Z,9.99
2019-05-12T11:36:24.179Z,9.96
2019-05-12T11:38:53.418Z,9.91
2019-05-12T11:41:27.976Z,9.90
2019-05-12T11:43:51.479Z,9.85
2019-05-12T11:46:19.483Z,9.87
2019-05-12T11:48:50.333Z,9.88
2019-05-12T11:51:20.874Z,9.92
2019-05-12T11:53:47.175Z,9.99
2019-05-12T11:56:15.200Z,9.98
2019-05-12T11:58:47.352Z,9.93
2019-05-12T12:01:15.870Z,9.97
2019-05-12T12:03:44.291Z,10.00
2019-05-12T12:06:13.477Z,10.03
2019-05-12T12:08:41.581Z,10.05
2019-05-12T12:11:10.540Z,10.01
2019-05-12T12:13:39.361Z,10.10
2019-05-12T12:16:11.166Z,10.12
2019-05-12T12:18:37.153Z,9.98
2019-05-12T12:21:07.618Z,10.01
2019-05-12T12:23:35.419Z,10.01
2019-05-12T12:26:04.016Z,10.02
2019-05-12T12:28:34.361Z,9.99
2019-05-12T12:31:05.411Z,9.97
2019-05-12T12:33:36.726Z,9.97
2019-05-12T12:36:03.925Z,9.91
2019-05-12T12:38:33.471Z,9.90
2019-05-12T12:41:03.751Z,9.98
2019-05-12T12:43:32.897Z,10.09
2019-05-12T12:46:10.832Z,10.06
2019-05-12T12:48:38.622Z,10.12
2019-05-12T12:51:06.495Z,10.18
2019-05-12T12:53:35.063Z,10.23
2019-05-12T12:56:04.304Z,10.25
2019-05-12T12:58:34.499Z,10.24
2019-05-12T13:01:03.776Z,10.22
2019-05-12T13:03:34.006Z,10.21
2019-05-12T13:06:01.910Z,10.21
2019-05-12T13:08:29.992Z,10.19
2019-05-12T13:10:57.803Z,10.26
2019-05-12T13:13:25.758Z,10.29
2019-05-12T13:15:53.809Z,10.33
2019-05-12T13:18:25.736Z,10.31
2019-05-12T13:20:53.968Z,10.30
2019-05-12T13:23:34.723Z,10.33
2019-05-12T13:25:54.731Z,10.28
2019-05-12T13:28:25.553Z,10.30
2019-05-12T13:30:55.888Z,10.35
2019-05-12T13:33:23.375Z,10.35
2019-05-12T13:35:55.535Z,10.29
2019-05-12T13:38:23.624Z,10.29
2019-05-12T13:40:53.794Z,10.30
2019-05-12T13:43:23.509Z,10.26
2019-05-12T13:45:50.854Z,10.17
2019-05-12T13:48:20.070Z,10.13
2019-05-12T13:50:48.085Z,10.07
2019-05-12T13:53:16.064Z,10.11
2019-05-12T13:55:45.518Z,10.19
2019-05-12T13:58:13.956Z,10.29
2019-05-12T14:00:50.877Z,10.24
2019-05-12T14:03:14.050Z,10.30
2019-05-12T14:05:50.338Z,10.36
2019-05-12T14:08:14.580Z,10.37
2019-05-12T14:10:52.821Z,10.30
2019-05-12T14:13:14.079Z,10.19
2019-05-12T14:15:44.276Z,10.15
2019-05-12T14:18:16.501Z,10.18
2019-05-12T14:20:44.947Z,10.18
2019-05-12T14:23:14.077Z,10.13
2019-05-12T14:25:43.760Z,10.16
2019-05-12T14:28:15.783Z,10.17
2019-05-12T14:30:49.749Z,10.08
2019-05-12T14:33:11.564Z,10.10
2019-05-12T14:35:45.346Z,10.21
2019-05-12T14:38:33.672Z,10.28
2019-05-12T14:41:09.478Z,10.35
2019-05-12T14:43:31.192Z,10.42
2019-05-12T14:46:00.151Z,10.39
2019-05-12T14:48:29.672Z,10.37
2019-05-12T14:50:57.829Z,10.31
2019-05-12T14:53:25.767Z,10.36
2019-05-12T14:55:53.770Z,10.40
2019-05-12T14:58:23.732Z,10.44
2019-05-12T15:00:56.285Z,10.54
2019-05-12T15:03:23.948Z,10.62
2019-05-12T15:05:51.371Z,10.64
2019-05-12T15:08:21.191Z,10.60
2019-05-12T15:10:49.451Z,10.63
2019-05-12T15:13:17.317Z,10.68
2019-05-12T15:15:50.160Z,10.70
2019-05-12T15:18:16.176Z,10.77
2019-05-12T15:20:49.894Z,10.75
2019-05-12T15:23:14.777Z,10.69
2019-05-12T15:25:43.264Z,10.77
2019-05-12T15:28:14.400Z,10.82
2019-05-12T15:30:43.599Z,10.81
2019-05-12T15:33:13.960Z,10.79
2019-05-12T15:35:43.656Z,10.84
2019-05-12T15:38:14.960Z,10.88
2019-05-12T15:40:43.327Z,10.88
2019-05-12T15:43:13.649Z,10.90
2019-05-12T15:45:43.518Z,10.90
2019-05-12T15:48:11.054Z,10.89
2019-05-12T15:50:43.431Z,10.88
2019-05-12T15:53:13.731Z,10.90
2019-05-12T15:55:40.515Z,10.92
2019-05-12T15:58:08.443Z,10.92
2019-05-12T16:00:38.456Z,10.84
2019-05-12T16:03:06.800Z,10.88
2019-05-12T16:05:34.903Z,10.86
2019-05-12T16:08:03.733Z,10.82
2019-05-12T16:10:31.983Z,10.83
2019-05-12T16:12:59.822Z,10.90
2019-05-12T16:15:28.205Z,10.94
2019-05-12T16:17:59.366Z,10.96
2019-05-12T16:20:26.191Z,10.90
2019-05-12T16:22:54.167Z,10.95
2019-05-12T16:25:28.974Z,11.02
2019-05-12T16:27:52.074Z,11.07
2019-05-12T16:30:25.368Z,11.12
2019-05-12T16:32:49.993Z,11.08
2019-05-12T16:35:20.063Z,11.00
2019-05-12T16:37:48.076Z,11.04
2019-05-12T16:40:17.024Z,11.02
2019-05-12T16:42:53.078Z,11.09
2019-05-12T16:45:15.379Z,11.08
2019-05-12T16:47:45.096Z,11.06
2019-05-12T16:50:15.910Z,11.10
2019-05-12T16:52:45.604Z,11.15
2019-05-12T16:55:13.840Z,11.18
2019-05-12T16:57:47.485Z,11.13
2019-05-12T17:00:14.280Z,11.19
2019-05-12T17:02:52.374Z,11.14
2019-05-12T17:05:19.980Z,11.18
2019-05-12T17:07:44.150Z,11.21
2019-05-12T17:10:16.622Z,11.22
2019-05-12T17:12:43.720Z,11.20
2019-05-12T17:15:14.650Z,11.26
2019-05-12T17:17:44.554Z,11.27
2019-05-12T17:20:13.838Z,11.29
2019-05-12T17:22:45.337Z,11.30
2019-05-12T17:25:15.466Z,11.32
2019-05-12T17:27:44.745Z,11.31
2019-05-12T17:30:13.868Z,11.27
2019-05-12T17:32:56.558Z,11.31
2019-05-12T17:35:13.925Z,11.35
2019-05-12T17:37:41.770Z,11.38
2019-05-12T17:40:15.461Z,11.37
2019-05-12T17:42:40.261Z,11.41
2019-05-12T17:45:09.355Z,11.43
2019-05-12T17:47:38.399Z,11.40
2019-05-12T17:50:10.307Z,11.41
2019-05-12T17:52:36.677Z,11.42
2019-05-12T17:55:10.488Z,11.43
2019-05-12T17:57:35.522Z,11.43
2019-05-12T18:00:10.440Z,11.42
2019-05-12T18:02:35.891Z,11.40
2019-05-12T18:05:07.664Z,11.40
2019-05-12T18:07:36.452Z,11.41
2019-05-12T18:10:05.342Z,11.43
2019-05-12T18:12:39.385Z,11.49
2019-05-12T18:15:04.760Z,11.48
2019-05-12T18:17:33.847Z,11.45
2019-05-12T18:20:04.143Z,11.44
2019-05-12T18:22:33.965Z,11.43
2019-05-12T18:25:04.314Z,11.41
2019-05-12T18:27:34.967Z,11.37
2019-05-12T18:30:04.297Z,11.36
2019-05-12T18:32:32.348Z,11.34
2019-05-12T18:35:00.280Z,11.34
2019-05-12T18:37:28.246Z,11.33
2019-05-12T18:39:56.310Z,11.32
2019-05-12T18:42:24.753Z,11.31
2019-05-12T18:44:54.603Z,11.54
2019-05-12T18:47:31.597Z,12.02
2019-05-12T18:49:53.870Z,12.16
2019-05-12T18:52:23.624Z,12.04
2019-05-12T18:54:55.212Z,11.91
2019-05-12T18:57:23.845Z,11.80
2019-05-12T18:59:55.105Z,11.70
2019-05-12T19:02:25.984Z,11.64
2019-05-12T19:04:53.910Z,11.57
2019-05-12T19:07:35.885Z,11.53
2019-05-12T19:09:52.528Z,11.49
2019-05-12T19:12:31.136Z,11.48
2019-05-12T19:14:54.713Z,11.44
2019-05-12T19:17:24.272Z,11.39
2019-05-12T19:19:59.605Z,11.36
2019-05-12T19:22:24.209Z,11.33
2019-05-12T19:24:56.757Z,11.30
2019-05-12T19:27:23.944Z,11.32
2019-05-12T19:29:54.418Z,11.29
2019-05-12T19:32:21.668Z,11.27
2019-05-12T19:34:49.713Z,11.29
2019-05-12T19:37:19.506Z,11.27
2019-05-12T19:39:47.595Z,11.25
2019-05-12T19:42:19.367Z,11.24
2019-05-12T19:44:45.443Z,11.21
2019-05-12T19:47:13.735Z,11.20
2019-05-12T19:49:47.773Z,11.16
2019-05-12T19:52:13.815Z,11.37
2019-05-12T19:54:44.216Z,11.67
2019-05-12T19:57:12.944Z,11.63
2019-05-12T19:59:50.556Z,11.51
2019-05-12T20:02:11.290Z,11.44
2019-05-12T20:04:43.137Z,11.40
2019-05-12T20:07:09.376Z,11.37
2019-05-12T20:09:37.381Z,11.33
2019-05-12T20:12:15.124Z,11.29
2019-05-12T20:14:36.079Z,11.28
2019-05-12T20:17:04.093Z,11.23
2019-05-12T20:19:34.038Z,11.25
2019-05-12T20:22:03.487Z,11.21
2019-05-12T20:24:31.855Z,11.21
2019-05-12T20:26:59.645Z,11.19
2019-05-12T20:29:33.513Z,11.13
2019-05-12T20:31:57.342Z,11.10
2019-05-12T20:34:25.323Z,11.11
2019-05-12T20:36:53.734Z,11.10
2019-05-12T20:39:24.589Z,11.09
2019-05-12T20:41:54.620Z,11.08
2019-05-12T20:44:23.853Z,11.08
2019-05-12T20:46:56.016Z,11.06
2019-05-12T20:49:23.987Z,11.04
2019-05-12T20:51:56.192Z,11.01
2019-05-12T20:54:23.793Z,11.01
2019-05-12T20:56:53.039Z,11.00
2019-05-12T20:59:23.684Z,11.00
2019-05-12T21:01:51.216Z,10.99
2019-05-12T21:04:22.045Z,10.97
2019-05-12T21:06:51.010Z,10.99
2019-05-12T21:09:19.412Z,10.95
2019-05-12T21:11:47.547Z,10.91
2019-05-12T21:14:15.465Z,10.86
2019-05-12T21:16:44.868Z,10.86
2019-05-12T21:19:14.191Z,10.83
2019-05-12T21:21:44.400Z,10.83
2019-05-12T21:24:13.993Z,10.81
2019-05-12T21:26:44.106Z,10.80
2019-05-12T21:29:13.792Z,10.74
2019-05-12T21:31:44.401Z,10.74
2019-05-12T21:34:20.667Z,10.70
2019-05-12T21:36:44.362Z,10.70
2019-05-12T21:39:13.957Z,10.64
2019-05-12T21:41:47.336Z,10.61
2019-05-12T21:44:13.904Z,10.61
2019-05-12T21:46:47.345Z,10.59
2019-05-12T21:49:14.840Z,10.59
2019-05-12T21:51:44.434Z,10.63
2019-05-12T21:54:13.546Z,10.60
2019-05-12T21:56:44.799Z,10.56
2019-05-12T21:59:13.409Z,10.58
2019-05-12T22:01:43.564Z,10.57
2019-05-12T22:04:14.336Z,10.55
2019-05-12T22:06:43.787Z,10.55
2019-05-12T22:09:14.590Z,10.50
2019-05-12T22:11:50.626Z,10.51
2019-05-12T22:14:13.680Z,10.50
2019-05-12T22:16:46.869Z,10.48
2019-05-12T22:19:13.897Z,10.46
2019-05-12T22:21:49.422Z,10.45
2019-05-12T22:24:14.584Z,10.45
2019-05-12T22:26:44.203Z,10.44
2019-05-12T22:29:13.574Z,10.39
2019-05-12T22:31:46.426Z,10.38
2019-05-12T22:34:11.610Z,10.39
2019-05-12T22:36:45.324Z,10.37
2019-05-12T22:39:10.426Z,10.35
2019-05-12T22:41:41.434Z,10.36
2019-05-12T22:44:08.254Z,10.34
2019-05-12T22:46:36.213Z,10.34
2019-05-12T22:49:04.434Z,10.35
2019-05-12T22:51:33.006Z,10.34
2019-05-12T22:54:08.628Z,10.26
2019-05-12T22:56:34.102Z,10.24
2019-05-12T22:59:01.680Z,10.25
2019-05-12T23:01:34.536Z,10.24
2019-05-12T23:03:59.384Z,10.23
2019-05-12T23:06:27.686Z,10.20
2019-05-12T23:08:55.709Z,10.18
2019-05-12T23:11:31.978Z,10.18
2019-05-12T23:13:53.910Z,10.19
2019-05-12T23:16:25.912Z,10.14
2019-05-12T23:18:53.763Z,10.15
2019-05-12T23:21:24.087Z,10.15
2019-05-12T23:23:57.398Z,10.11
2019-05-12T23:26:21.638Z,10.11
2019-05-12T23:28:50.304Z,10.12
2019-05-12T23:31:19.595Z,10.08
2019-05-12T23:33:48.261Z,10.08
2019-05-12T23:36:19.567Z,10.05
2019-05-12T23:38:46.148Z,10.06
2019-05-12T23:41:14.172Z,10.05
2019-05-12T23:43:42.136Z,10.02
2019-05-12T23:46:09.992Z,10.00
2019-05-12T23:48:38.002Z,9.98
2019-05-12T23:51:05.965Z,9.98
2019-05-12T23:53:34.080Z,9.98
2019-05-12T23:56:03.775Z,9.93
2019-05-12T23:58:31.855Z,9.90
